OOCL Nagoya — VRFX8 — position and weather

sailwx.info

Track history (hours):
 
Tides and Currents Weather Stations Pressure Air Temp Water Temp Dewpoint Dewpoint Depression Visibility Wind Speed Wind Dir Waves Ship Positions

OOCL Nagoya

Last reported at 2016-Sep-25 21:33 UTC. Time now 2016-Sep-26 07:01 UTC.
Position N 01°14' E 103°59'.

Length 261 m; draft 11.3 m.

Type: Cargo ship. MMSI: 477627900.

Date/timePositionNaut miles runAvg speedWind from/ knotsBaromVisibWave heightAir tempDewpointWater temp
2016-Sep-25 21:33N 01°14' E 103°59'8 2.0
2016-Sep-25 17:28N 01°16' E 103°51'0 0.0
2016-Sep-25 16:31N 01°16' E 103°51'0 0.0
2016-Sep-25 15:25N 01°16' E 103°51'0 0.0
2016-Sep-25 14:25N 01°16' E 103°51'0 0.0
2016-Sep-25 12:31N 01°16' E 103°51'0 0.0
2016-Sep-25 11:31N 01°16' E 103°51'0 0.0
2016-Sep-25 10:16N 01°16' E 103°51'0 0.0
2016-Sep-25 09:28N 01°16' E 103°51'0 0.0
2016-Sep-25 07:31N 01°16' E 103°51'4 1.5
2016-Sep-25 04:33N 01°14' E 103°55'  
2016-Sep-22 00:23N 22°27' E 113°54'0 0.0
2016-Sep-21 23:23N 22°27' E 113°54'0 0.0
2016-Sep-21 22:29N 22°27' E 113°54'0 0.0
2016-Sep-21 19:29N 22°27' E 113°54'339 6.7
2016-Sep-19 16:33N 22°32' E 120°01'17 3.1
2016-Sep-19 11:13N 22°34' E 120°18'0 0.0
2016-Sep-19 09:25N 22°34' E 120°18'0 0.0
2016-Sep-19 07:31N 22°34' E 120°18'0 0.0
2016-Sep-19 06:31N 22°34' E 120°18'0 0.0
2016-Sep-19 03:19N 22°34' E 120°18'0 0.0
2016-Sep-19 02:31N 22°34' E 120°18'6 3.0
2016-Sep-19 00:33N 22°31' E 120°13'  
Track history (hours):
 
Tides and Currents Weather Stations Pressure Air Temp Water Temp Dewpoint Dewpoint Depression Visibility Wind Speed Wind Dir Waves Ship Positions

OOCL Nagoya

Last reported at 2016-Sep-25 21:33 UTC. Time now 2016-Sep-26 07:01 UTC.
Position N 01°14' E 103°59'.

Length 261 m; draft 11.3 m.

Type: Cargo ship. MMSI: 477627900.

Date/timePositionNaut miles runAvg speedWind from/ knotsBaromVisibWave heightAir tempDewpointWater temp
2016-Sep-25 21:33N 01°14' E 103°59'8 2.0
2016-Sep-25 17:28N 01°16' E 103°51'0 0.0
2016-Sep-25 16:31N 01°16' E 103°51'0 0.0
2016-Sep-25 15:25N 01°16' E 103°51'0 0.0
2016-Sep-25 14:25N 01°16' E 103°51'0 0.0
2016-Sep-25 12:31N 01°16' E 103°51'0 0.0
2016-Sep-25 11:31N 01°16' E 103°51'0 0.0
2016-Sep-25 10:16N 01°16' E 103°51'0 0.0
2016-Sep-25 09:28N 01°16' E 103°51'0 0.0
2016-Sep-25 07:31N 01°16' E 103°51'4 1.5
2016-Sep-25 04:33N 01°14' E 103°55'  
2016-Sep-22 00:23N 22°27' E 113°54'0 0.0
2016-Sep-21 23:23N 22°27' E 113°54'0 0.0
2016-Sep-21 22:29N 22°27' E 113°54'0 0.0
2016-Sep-21 19:29N 22°27' E 113°54'339 6.7
2016-Sep-19 16:33N 22°32' E 120°01'17 3.1
2016-Sep-19 11:13N 22°34' E 120°18'0 0.0
2016-Sep-19 09:25N 22°34' E 120°18'0 0.0
2016-Sep-19 07:31N 22°34' E 120°18'0 0.0
2016-Sep-19 06:31N 22°34' E 120°18'0 0.0
2016-Sep-19 03:19N 22°34' E 120°18'0 0.0
2016-Sep-19 02:31N 22°34' E 120°18'6 3.0
2016-Sep-19 00:33N 22°31' E 120°13'  

Dump ship's entire track history